createdAt,value
2018-09-15T00:01:38.120Z,19.00
2018-09-15T00:04:08.966Z,18.90
2018-09-15T00:06:39.737Z,19.00
2018-09-15T00:09:10.966Z,19.10
2018-09-15T00:11:41.744Z,19.20
2018-09-15T00:14:12.545Z,19.10
2018-09-15T00:16:43.356Z,19.20
2018-09-15T00:19:14.276Z,19.20
2018-09-15T00:21:45.082Z,19.20
2018-09-15T00:24:15.843Z,19.20
2018-09-15T00:26:46.663Z,19.30
2018-09-15T00:29:17.459Z,19.30
2018-09-15T00:31:48.273Z,19.30
2018-09-15T00:34:19.098Z,19.20
2018-09-15T00:36:49.946Z,19.10
2018-09-15T00:39:20.962Z,19.10
2018-09-15T00:41:51.896Z,19.10
2018-09-15T00:44:22.636Z,19.00
2018-09-15T00:46:53.508Z,18.90
2018-09-15T00:49:24.549Z,18.80
2018-09-15T00:51:55.383Z,18.80
2018-09-15T00:54:26.172Z,18.90
2018-09-15T00:56:57.029Z,18.90
2018-09-15T00:59:27.936Z,18.90
2018-09-15T01:01:58.703Z,18.90
2018-09-15T01:04:29.709Z,18.80
2018-09-15T01:07:00.565Z,18.80
2018-09-15T01:09:31.459Z,18.80
2018-09-15T01:12:02.425Z,18.70
2018-09-15T01:14:33.214Z,18.70
2018-09-15T01:17:04.291Z,18.60
2018-09-15T01:19:35.215Z,18.60
2018-09-15T01:22:06.153Z,18.60
2018-09-15T01:24:37.034Z,18.60
2018-09-15T01:27:07.831Z,18.60
2018-09-15T01:29:38.740Z,18.60
2018-09-15T01:32:09.647Z,18.50
2018-09-15T01:34:40.570Z,18.60
2018-09-15T01:37:11.403Z,18.50
2018-09-15T01:39:42.412Z,18.50
2018-09-15T01:42:13.241Z,18.50
2018-09-15T01:44:44.111Z,18.40
2018-09-15T01:47:14.904Z,18.40
2018-09-15T01:49:45.732Z,18.40
2018-09-15T01:52:16.620Z,18.30
2018-09-15T01:54:47.984Z,18.30
2018-09-15T01:57:18.835Z,18.30
2018-09-15T01:59:49.605Z,18.30
2018-09-15T02:02:20.623Z,18.40
2018-09-15T02:04:51.417Z,18.40
2018-09-15T02:07:22.257Z,18.40
2018-09-15T02:09:53.129Z,18.30
2018-09-15T02:12:24.010Z,18.30
2018-09-15T02:14:54.844Z,18.30
2018-09-15T02:17:25.706Z,18.30
2018-09-15T02:19:56.574Z,18.20
2018-09-15T02:22:27.402Z,18.20
2018-09-15T02:24:58.194Z,18.20
2018-09-15T02:27:28.952Z,18.20
2018-09-15T02:29:59.724Z,18.20
2018-09-15T02:32:30.574Z,18.20
2018-09-15T02:35:01.445Z,18.30
2018-09-15T02:37:32.257Z,18.20
2018-09-15T02:40:03.120Z,18.20
2018-09-15T02:42:33.980Z,18.10
2018-09-15T02:45:04.964Z,18.20
2018-09-15T02:47:35.823Z,18.20
2018-09-15T02:50:07.263Z,18.30
2018-09-15T02:52:38.051Z,18.20
2018-09-15T02:55:08.903Z,18.10
2018-09-15T02:57:39.693Z,18.10
2018-09-15T03:00:10.542Z,18.10
2018-09-15T03:02:41.407Z,18.20
2018-09-15T03:05:12.200Z,18.20
2018-09-15T03:07:43.000Z,18.10
2018-09-15T03:10:13.784Z,18.00
2018-09-15T03:12:44.676Z,18.10
2018-09-15T03:15:15.483Z,18.10
2018-09-15T03:17:46.449Z,18.00
2018-09-15T03:20:17.448Z,17.90
2018-09-15T03:22:48.952Z,17.90
2018-09-15T03:25:19.846Z,18.00
2018-09-15T03:27:50.717Z,18.00
2018-09-15T03:30:21.628Z,18.00
2018-09-15T03:32:52.436Z,17.90
2018-09-15T03:35:23.300Z,17.90
2018-09-15T03:37:54.117Z,17.80
2018-09-15T03:40:24.900Z,18.00
2018-09-15T03:42:55.782Z,17.90
2018-09-15T03:45:26.593Z,17.90
2018-09-15T03:47:57.375Z,17.90
2018-09-15T03:50:28.279Z,17.90
2018-09-15T03:52:59.106Z,17.90
2018-09-15T03:55:29.927Z,17.90
2018-09-15T03:58:00.754Z,17.90
2018-09-15T04:00:31.580Z,17.90
2018-09-15T04:03:02.362Z,17.90
2018-09-15T04:05:33.180Z,17.90
2018-09-15T04:08:04.018Z,17.80
2018-09-15T04:10:34.857Z,17.80
2018-09-15T04:13:06.417Z,17.80
2018-09-15T04:15:37.275Z,17.80
2018-09-15T04:18:08.333Z,17.80
2018-09-15T04:20:39.194Z,17.80
2018-09-15T04:23:10.086Z,17.70
2018-09-15T04:25:40.896Z,17.50
2018-09-15T04:28:11.756Z,17.50
2018-09-15T04:30:43.132Z,17.50
2018-09-15T04:33:13.989Z,17.30
2018-09-15T04:35:44.852Z,17.20
2018-09-15T04:38:15.714Z,17.20
2018-09-15T04:40:46.614Z,17.20
2018-09-15T04:43:17.460Z,17.10
2018-09-15T04:45:48.288Z,17.10
2018-09-15T04:48:19.173Z,17.10
2018-09-15T04:50:50.119Z,17.10
2018-09-15T04:53:20.920Z,17.10
2018-09-15T04:55:51.848Z,17.10
2018-09-15T04:58:22.766Z,17.20
2018-09-15T05:00:53.691Z,17.20
2018-09-15T05:03:24.564Z,17.20
2018-09-15T05:05:55.582Z,17.40
2018-09-15T05:08:26.361Z,17.50
2018-09-15T05:10:57.225Z,17.40
2018-09-15T05:13:28.108Z,17.40
2018-09-15T05:15:58.952Z,17.40
2018-09-15T05:18:29.804Z,17.50
2018-09-15T05:21:00.962Z,17.60
2018-09-15T05:23:31.964Z,17.60
2018-09-15T05:26:02.822Z,17.70
2018-09-15T05:28:33.755Z,17.60
2018-09-15T05:31:04.560Z,17.60
2018-09-15T05:33:35.384Z,17.60
2018-09-15T05:36:06.228Z,17.50
2018-09-15T05:38:37.000Z,17.50
2018-09-15T05:41:07.848Z,17.50
2018-09-15T05:43:38.664Z,17.60
2018-09-15T05:46:09.504Z,17.60
2018-09-15T05:48:40.288Z,17.90
2018-09-15T05:51:11.133Z,18.10
2018-09-15T05:53:41.976Z,18.40
2018-09-15T05:56:12.902Z,18.80
2018-09-15T05:58:43.727Z,19.00
2018-09-15T06:01:14.658Z,19.30
2018-09-15T06:03:45.479Z,19.70
2018-09-15T06:06:16.334Z,19.90
2018-09-15T06:08:47.171Z,19.80
2018-09-15T06:11:17.996Z,19.80
2018-09-15T06:13:48.901Z,19.90
2018-09-15T06:16:19.676Z,20.50
2018-09-15T06:18:50.846Z,21.10
2018-09-15T06:21:21.717Z,21.50
2018-09-15T06:23:52.569Z,21.20
2018-09-15T06:26:23.467Z,21.70
2018-09-15T06:28:54.411Z,22.00
2018-09-15T06:31:25.341Z,22.40
2018-09-15T06:33:56.265Z,23.10
2018-09-15T06:36:27.089Z,23.20
2018-09-15T06:38:57.949Z,23.00
2018-09-15T06:41:28.876Z,22.70
2018-09-15T06:43:59.717Z,23.00
2018-09-15T06:46:30.632Z,23.70
2018-09-15T06:49:01.441Z,24.50
2018-09-15T06:51:32.363Z,25.20
2018-09-15T06:54:03.156Z,25.90
2018-09-15T06:56:34.125Z,26.30
2018-09-15T06:59:05.106Z,25.90
2018-09-15T07:01:39.321Z,26.20
2018-09-15T07:04:12.133Z,26.70
2018-09-15T07:06:43.371Z,27.20
2018-09-15T07:09:15.074Z,27.40
2018-09-15T07:11:45.936Z,27.20
2018-09-15T07:14:16.813Z,27.20
2018-09-15T07:16:48.109Z,27.50
2018-09-15T07:19:19.080Z,27.70
2018-09-15T07:21:50.304Z,27.80
2018-09-15T07:24:21.156Z,28.10
2018-09-15T07:26:52.083Z,28.40
2018-09-15T07:29:22.898Z,28.40
2018-09-15T07:31:53.876Z,28.50
2018-09-15T07:34:24.964Z,28.60
2018-09-15T07:36:55.859Z,29.00
2018-09-15T07:39:26.781Z,29.30
2018-09-15T07:41:57.691Z,29.60
2018-09-15T07:44:28.496Z,30.10
2018-09-15T07:46:59.407Z,30.60
2018-09-15T07:49:30.283Z,30.80
2018-09-15T07:52:01.103Z,30.90
2018-09-15T07:54:31.949Z,31.30
2018-09-15T07:57:02.873Z,31.10
2018-09-15T07:59:33.743Z,30.90
2018-09-15T08:02:08.656Z,31.10
2018-09-15T08:04:40.908Z,31.40
2018-09-15T08:07:12.110Z,31.80
2018-09-15T08:09:43.075Z,32.10
2018-09-15T08:12:14.097Z,32.20
2018-09-15T08:14:44.952Z,32.20
2018-09-15T08:17:15.851Z,32.30
2018-09-15T08:19:46.707Z,32.40
2018-09-15T08:22:17.564Z,32.10
2018-09-15T08:24:48.453Z,31.70
2018-09-15T08:27:19.290Z,31.30
2018-09-15T08:29:50.120Z,31.30
2018-09-15T08:32:21.125Z,31.40
2018-09-15T08:34:52.025Z,31.70
2018-09-15T08:37:22.869Z,31.50
2018-09-15T08:39:54.111Z,31.50
2018-09-15T08:42:24.983Z,31.50
2018-09-15T08:44:55.966Z,31.40
2018-09-15T08:47:26.916Z,31.60
2018-09-15T08:49:57.888Z,32.10
2018-09-15T08:52:28.841Z,32.60
2018-09-15T08:54:59.812Z,32.60
2018-09-15T08:57:30.675Z,32.50
2018-09-15T09:00:01.646Z,32.80
2018-09-15T09:02:34.000Z,33.10
2018-09-15T09:05:08.226Z,33.60
2018-09-15T09:07:39.042Z,33.90
2018-09-15T09:10:10.044Z,33.70
2018-09-15T09:12:44.758Z,33.80
2018-09-15T09:15:15.662Z,34.30
2018-09-15T09:17:58.126Z,34.60
2018-09-15T09:20:30.271Z,34.40
2018-09-15T09:23:01.138Z,34.70
2018-09-15T09:25:32.013Z,34.40
2018-09-15T09:28:02.840Z,34.30
2018-09-15T09:30:34.094Z,33.70
2018-09-15T09:33:05.101Z,33.40
2018-09-15T09:35:35.944Z,33.80
2018-09-15T09:38:07.024Z,33.50
2018-09-15T09:40:37.868Z,34.00
2018-09-15T09:43:08.812Z,34.40
2018-09-15T09:45:39.787Z,34.30
2018-09-15T09:48:12.247Z,34.20
2018-09-15T09:50:43.126Z,34.60
2018-09-15T09:53:14.026Z,34.80
2018-09-15T09:55:44.956Z,34.70
2018-09-15T09:58:15.752Z,34.20
2018-09-15T10:00:51.810Z,34.20
2018-09-15T10:03:22.737Z,34.50
2018-09-15T10:05:53.684Z,34.50
2018-09-15T10:08:24.688Z,34.60
2018-09-15T10:10:55.647Z,35.00
2018-09-15T10:13:26.619Z,34.70
2018-09-15T10:15:57.531Z,34.70
2018-09-15T10:18:28.344Z,34.40
2018-09-15T10:20:59.230Z,34.40
2018-09-15T10:23:30.114Z,34.80
2018-09-15T10:26:00.974Z,34.40
2018-09-15T10:28:31.849Z,34.40
2018-09-15T10:31:02.942Z,34.20
2018-09-15T10:33:33.730Z,34.10
2018-09-15T10:36:04.648Z,34.10
2018-09-15T10:38:35.504Z,33.90
2018-09-15T10:41:06.384Z,33.80
2018-09-15T10:50:41.385Z,34.30
2018-09-15T10:53:12.367Z,34.00
2018-09-15T10:55:44.094Z,33.30
2018-09-15T10:58:15.766Z,33.00
2018-09-15T11:00:46.767Z,33.20
2018-09-15T11:03:17.523Z,33.60
2018-09-15T11:05:48.573Z,33.80
2018-09-15T11:08:19.333Z,34.10
2018-09-15T11:10:50.179Z,34.40
2018-09-15T11:13:21.061Z,34.40
2018-09-15T11:15:51.996Z,34.40
2018-09-15T11:18:22.858Z,34.20
2018-09-15T11:20:53.717Z,33.90
2018-09-15T11:23:24.548Z,33.70
2018-09-15T11:25:55.637Z,33.80
2018-09-15T11:28:26.508Z,33.30
2018-09-15T11:30:57.410Z,33.00
2018-09-15T11:33:28.455Z,32.70
2018-09-15T11:35:59.393Z,32.50
2018-09-15T11:38:30.384Z,32.50
2018-09-15T11:41:01.266Z,31.90
2018-09-15T11:43:32.189Z,31.80
2018-09-15T11:46:03.050Z,31.80
2018-09-15T11:48:33.910Z,31.70
2018-09-15T11:51:04.849Z,31.40
2018-09-15T11:53:36.851Z,31.50
2018-09-15T11:56:08.341Z,31.70
2018-09-15T11:58:39.387Z,32.00
2018-09-15T12:01:11.142Z,32.00
2018-09-15T12:03:42.904Z,31.50
2018-09-15T12:06:14.150Z,31.70
2018-09-15T12:08:45.363Z,31.90
2018-09-15T12:11:16.998Z,31.80
2018-09-15T12:13:48.536Z,31.50
2018-09-15T12:16:19.594Z,31.20
2018-09-15T12:18:50.851Z,30.80
2018-09-15T12:21:21.803Z,30.40
2018-09-15T12:23:52.865Z,30.20
2018-09-15T12:26:23.926Z,29.90
2018-09-15T12:28:54.989Z,29.90
2018-09-15T12:31:25.975Z,29.70
2018-09-15T12:33:56.976Z,29.50
2018-09-15T12:36:28.234Z,29.30
2018-09-15T12:38:59.402Z,29.30
2018-09-15T12:41:30.263Z,29.30
2018-09-15T12:44:01.196Z,29.10
2018-09-15T12:46:32.564Z,29.10
2018-09-15T12:49:03.505Z,29.10
2018-09-15T12:51:34.821Z,29.10
2018-09-15T12:54:05.745Z,29.30
2018-09-15T12:56:37.035Z,29.30
2018-09-15T12:59:08.108Z,29.30
2018-09-15T13:01:39.235Z,29.10
2018-09-15T13:04:10.611Z,29.20
2018-09-15T13:06:41.668Z,29.30
2018-09-15T13:09:13.976Z,29.20
2018-09-15T13:11:45.509Z,29.20
2018-09-15T13:14:16.837Z,29.00
2018-09-15T13:16:48.231Z,28.80
2018-09-15T13:19:20.486Z,28.60
2018-09-15T13:21:53.239Z,28.50
2018-09-15T13:24:24.177Z,28.60
2018-09-15T13:26:55.176Z,28.50
2018-09-15T13:29:26.431Z,28.30
2018-09-15T13:31:57.443Z,28.10
2018-09-15T13:34:28.850Z,28.10
2018-09-15T13:36:59.728Z,28.30
2018-09-15T13:39:30.640Z,28.20
2018-09-15T13:42:01.455Z,28.10
2018-09-15T13:44:32.257Z,28.00
2018-09-15T13:47:03.171Z,28.10
2018-09-15T13:49:34.088Z,28.10
2018-09-15T13:52:04.991Z,28.00
2018-09-15T13:54:35.968Z,27.90
2018-09-15T13:57:06.868Z,27.70
2018-09-15T13:59:37.690Z,27.50
2018-09-15T14:02:08.662Z,27.70
2018-09-15T14:04:39.520Z,27.60
2018-09-15T14:07:10.506Z,27.50
2018-09-15T14:09:43.624Z,27.50
2018-09-15T14:12:12.191Z,27.40
2018-09-15T14:14:43.153Z,27.40
2018-09-15T14:17:14.084Z,27.50
2018-09-15T14:19:44.973Z,27.60
2018-09-15T14:22:15.847Z,27.40
2018-09-15T14:24:46.661Z,27.40
2018-09-15T14:27:17.511Z,27.40
2018-09-15T14:29:49.441Z,27.20
2018-09-15T14:32:21.728Z,27.00
2018-09-15T14:34:52.645Z,27.10
2018-09-15T14:37:23.465Z,27.40
2018-09-15T14:39:55.344Z,27.30
2018-09-15T14:42:26.312Z,27.30
2018-09-15T14:44:57.150Z,27.40
2018-09-15T14:47:28.315Z,27.40
2018-09-15T14:49:59.188Z,27.50
2018-09-15T14:52:30.072Z,27.50
2018-09-15T14:55:01.197Z,27.40
2018-09-15T14:57:32.015Z,27.40
2018-09-15T15:00:02.843Z,27.30
2018-09-15T15:02:33.812Z,27.20
2018-09-15T15:05:04.685Z,27.20
2018-09-15T15:07:39.967Z,27.20
2018-09-15T15:10:10.745Z,27.40
2018-09-15T15:12:41.581Z,27.20
2018-09-15T15:15:12.510Z,26.80
2018-09-15T15:17:43.340Z,26.80
2018-09-15T15:20:14.195Z,26.50
2018-09-15T15:22:45.043Z,26.40
2018-09-15T15:25:15.905Z,26.10
2018-09-15T15:27:46.816Z,26.00
2018-09-15T15:30:17.739Z,25.80
2018-09-15T15:32:48.532Z,25.90
2018-09-15T15:35:19.470Z,26.10
2018-09-15T15:37:50.411Z,26.10
2018-09-15T15:40:21.225Z,26.00
2018-09-15T15:42:52.085Z,26.00
2018-09-15T15:45:22.895Z,26.00
2018-09-15T15:47:53.979Z,25.80
2018-09-15T15:50:25.037Z,25.70
2018-09-15T15:52:55.872Z,25.70
2018-09-15T15:55:26.754Z,25.60
2018-09-15T15:57:57.618Z,25.70
2018-09-15T16:00:28.495Z,25.60
2018-09-15T16:03:00.009Z,25.70
2018-09-15T16:05:30.863Z,25.70
2018-09-15T16:08:01.783Z,25.60
2018-09-15T16:10:32.637Z,25.70
2018-09-15T16:13:03.717Z,25.70
2018-09-15T16:15:34.656Z,25.80
2018-09-15T16:18:05.639Z,25.70
2018-09-15T16:20:36.498Z,25.60
2018-09-15T16:23:07.461Z,25.50
2018-09-15T16:25:38.668Z,25.60
2018-09-15T16:28:09.542Z,25.50
2018-09-15T16:30:40.512Z,25.40
2018-09-15T16:33:11.376Z,25.20
2018-09-15T16:35:42.339Z,25.10
2018-09-15T16:38:13.273Z,25.30
2018-09-15T16:40:44.316Z,25.30
2018-09-15T16:43:15.570Z,25.20
2018-09-15T16:45:46.612Z,25.20
2018-09-15T16:48:17.530Z,25.20
2018-09-15T16:50:48.499Z,25.00
2018-09-15T16:53:19.487Z,25.10
2018-09-15T16:55:50.574Z,24.90
2018-09-15T16:58:21.456Z,24.70
2018-09-15T17:00:52.487Z,24.70
2018-09-15T17:03:23.400Z,24.60
2018-09-15T17:05:54.268Z,24.40
2018-09-15T17:08:25.207Z,24.30
2018-09-15T17:10:56.328Z,24.10
2018-09-15T17:13:27.298Z,24.10
2018-09-15T17:15:58.119Z,23.90
2018-09-15T17:18:28.972Z,23.80
2018-09-15T17:20:59.791Z,23.80
2018-09-15T17:23:30.748Z,23.80
2018-09-15T17:26:01.590Z,23.70
2018-09-15T17:28:32.588Z,23.60
2018-09-15T17:31:03.534Z,23.50
2018-09-15T17:33:34.377Z,23.40
2018-09-15T17:36:05.258Z,23.40
2018-09-15T17:38:36.208Z,23.30
2018-09-15T17:41:07.217Z,23.30
2018-09-15T17:43:38.219Z,23.30
2018-09-15T17:46:09.115Z,23.30
2018-09-15T17:48:40.011Z,23.20
2018-09-15T17:51:10.870Z,23.10
2018-09-15T17:53:42.013Z,23.20
2018-09-15T17:56:13.178Z,23.30
2018-09-15T17:58:44.071Z,23.30
2018-09-15T18:01:15.031Z,23.20
2018-09-15T18:03:45.952Z,22.90
2018-09-15T18:06:16.815Z,22.90
2018-09-15T18:08:47.726Z,22.70
2018-09-15T18:11:19.648Z,22.70
2018-09-15T18:13:50.718Z,22.60
2018-09-15T18:16:21.645Z,22.50
2018-09-15T18:18:52.637Z,22.50
2018-09-15T18:21:23.839Z,22.40
2018-09-15T18:23:54.748Z,22.30
2018-09-15T18:26:25.740Z,22.40
2018-09-15T18:28:57.007Z,22.50
2018-09-15T18:31:27.956Z,22.50
2018-09-15T18:33:59.160Z,22.40
2018-09-15T18:36:30.239Z,22.40
2018-09-15T18:39:01.138Z,22.30
2018-09-15T18:41:32.227Z,22.30
2018-09-15T18:44:03.081Z,22.20
2018-09-15T18:46:33.978Z,22.30
2018-09-15T18:49:05.806Z,22.40
2018-09-15T18:51:36.701Z,22.20
2018-09-15T18:54:07.740Z,22.00
2018-09-15T18:56:38.734Z,22.00
2018-09-15T18:59:09.674Z,21.90
2018-09-15T19:01:40.931Z,21.90
2018-09-15T19:04:11.992Z,21.90
2018-09-15T19:06:42.911Z,21.80
2018-09-15T19:09:13.797Z,21.80
2018-09-15T19:11:44.766Z,21.70
2018-09-15T19:14:15.732Z,21.70
2018-09-15T19:16:46.750Z,21.80
2018-09-15T19:19:17.676Z,21.80
2018-09-15T19:21:48.949Z,21.80
2018-09-15T19:24:19.960Z,21.70
2018-09-15T19:26:51.094Z,21.60
2018-09-15T19:29:22.037Z,21.60
2018-09-15T19:31:53.056Z,21.60
2018-09-15T19:34:23.950Z,21.50
2018-09-15T19:36:55.109Z,21.50
2018-09-15T19:39:26.476Z,21.40
2018-09-15T19:41:57.416Z,21.40
2018-09-15T19:44:28.720Z,21.50
2018-09-15T19:46:59.783Z,21.30
2018-09-15T19:49:30.853Z,21.30
2018-09-15T19:52:01.882Z,21.40
2018-09-15T19:54:32.855Z,21.40
2018-09-15T19:57:03.930Z,21.30
2018-09-15T19:59:34.883Z,21.20
2018-09-15T20:02:06.054Z,21.10
2018-09-15T20:04:36.995Z,21.10
2018-09-15T20:07:07.965Z,21.10
2018-09-15T20:09:38.994Z,21.30
2018-09-15T20:12:10.011Z,21.20
2018-09-15T20:14:40.997Z,21.20
2018-09-15T20:17:09.639Z,21.10
2018-09-15T20:19:38.388Z,21.00
2018-09-15T20:22:09.342Z,21.00
2018-09-15T20:24:40.339Z,21.00
2018-09-15T20:27:11.235Z,20.90
2018-09-15T20:29:42.176Z,20.90
2018-09-15T20:32:13.226Z,20.80
2018-09-15T20:34:44.498Z,20.80
2018-09-15T20:37:15.368Z,20.90
2018-09-15T20:39:46.311Z,20.90
2018-09-15T20:42:17.211Z,20.90
2018-09-15T20:44:48.084Z,20.90
2018-09-15T20:47:18.948Z,20.90
2018-09-15T20:49:49.892Z,20.90
2018-09-15T20:52:20.758Z,20.90
2018-09-15T20:54:51.595Z,20.80
2018-09-15T20:57:22.604Z,20.80
2018-09-15T20:59:53.365Z,20.70
2018-09-15T21:02:24.308Z,20.80
2018-09-15T21:04:55.180Z,20.80
2018-09-15T21:07:26.091Z,20.70
2018-09-15T21:09:56.960Z,20.60
2018-09-15T21:12:27.849Z,20.60
2018-09-15T21:14:58.732Z,20.60
2018-09-15T21:17:29.625Z,20.60
2018-09-15T21:20:00.493Z,20.60
2018-09-15T21:22:31.476Z,20.50
2018-09-15T21:25:02.350Z,20.40
2018-09-15T21:27:33.190Z,20.40
2018-09-15T21:30:04.074Z,20.40
2018-09-15T21:32:34.993Z,20.40
2018-09-15T21:35:06.000Z,20.40
2018-09-15T21:37:36.940Z,20.40
2018-09-15T21:40:08.427Z,20.40
2018-09-15T21:42:39.253Z,20.40
2018-09-15T21:45:10.123Z,20.40
2018-09-15T21:47:41.017Z,20.10
2018-09-15T21:50:11.843Z,20.00
2018-09-15T21:52:42.712Z,20.10
2018-09-15T21:55:13.581Z,20.20
2018-09-15T21:57:44.575Z,20.30
2018-09-15T22:00:15.472Z,20.20
2018-09-15T22:02:46.371Z,20.20
2018-09-15T22:05:17.305Z,20.20
2018-09-15T22:07:48.197Z,20.10
2018-09-15T22:10:19.997Z,20.00
2018-09-15T22:12:50.932Z,20.10
2018-09-15T22:15:26.713Z,20.10
2018-09-15T22:17:59.037Z,19.90
2018-09-15T22:20:29.934Z,19.90
2018-09-15T22:23:00.787Z,19.80
2018-09-15T22:25:31.550Z,20.00
2018-09-15T22:28:02.471Z,20.10
2018-09-15T22:30:33.241Z,20.10
2018-09-15T22:33:04.103Z,20.20
2018-09-15T22:35:34.954Z,20.00
2018-09-15T22:38:05.843Z,19.80
2018-09-15T22:40:36.704Z,19.90
2018-09-15T22:43:07.681Z,19.90
2018-09-15T22:45:38.516Z,19.80
2018-09-15T22:48:09.358Z,19.80
2018-09-15T22:50:40.219Z,19.70
2018-09-15T22:53:11.080Z,19.80
2018-09-15T22:55:42.044Z,19.90
2018-09-15T22:58:12.917Z,19.90
2018-09-15T23:00:45.298Z,19.70
2018-09-15T23:03:16.145Z,19.60
2018-09-15T23:05:47.112Z,19.60
2018-09-15T23:08:18.066Z,19.40
2018-09-15T23:10:48.832Z,19.50
2018-09-15T23:13:19.657Z,19.40
2018-09-15T23:15:50.759Z,19.30
2018-09-15T23:18:21.608Z,19.30
2018-09-15T23:20:52.866Z,19.30
2018-09-15T23:23:23.863Z,19.10
2018-09-15T23:25:54.769Z,19.10
2018-09-15T23:28:25.601Z,19.10
2018-09-15T23:30:56.444Z,19.30
2018-09-15T23:33:27.356Z,19.30
2018-09-15T23:35:58.361Z,19.30
2018-09-15T23:38:29.201Z,19.30
2018-09-15T23:41:00.060Z,19.30
2018-09-15T23:43:30.845Z,19.40
2018-09-15T23:46:01.672Z,19.20
2018-09-15T23:48:32.520Z,19.10
2018-09-15T23:51:03.331Z,19.10
2018-09-15T23:53:34.140Z,19.10
2018-09-15T23:56:04.985Z,19.20
2018-09-15T23:58:35.896Z,19.20
